createdAt,value
2019-03-16T13:33:53.417Z,68.00
2019-03-16T13:34:51.037Z,104.00
2019-03-16T13:36:44.153Z,76.00
2019-03-16T13:37:44.149Z,72.00
2019-03-16T13:39:37.282Z,112.00
2019-03-16T13:40:37.269Z,136.00
2019-03-16T13:42:30.385Z,136.00
2019-03-16T13:43:30.379Z,104.00
2019-03-16T13:45:23.518Z,144.00
2019-03-16T13:46:23.495Z,132.00
2019-03-16T13:48:16.614Z,164.00
2019-03-16T13:49:16.607Z,240.00
2019-03-16T13:51:09.746Z,180.00
2019-03-16T13:52:09.722Z,200.00
2019-03-16T13:54:02.845Z,156.00
2019-03-16T13:55:02.841Z,152.00
2019-03-16T13:56:55.982Z,152.00
2019-03-16T13:57:55.958Z,104.00
2019-03-16T13:59:49.080Z,80.00
2019-03-16T14:00:49.071Z,80.00
2019-03-16T14:02:42.221Z,84.00
2019-03-16T14:03:42.201Z,84.00
2019-03-16T14:04:42.200Z,100.00
2019-03-16T14:05:42.200Z,96.00
2019-03-16T14:06:42.200Z,88.00
2019-03-16T14:07:42.201Z,84.00
2019-03-16T14:08:42.205Z,96.00
2019-03-16T14:09:42.203Z,100.00
2019-03-16T14:10:42.209Z,104.00
2019-03-16T14:11:42.210Z,104.00
2019-03-16T14:12:42.203Z,116.00
2019-03-16T14:13:42.206Z,108.00
2019-03-16T14:14:42.203Z,120.00
2019-03-16T14:15:42.208Z,152.00
2019-03-16T14:16:42.211Z,116.00
2019-03-16T14:17:42.205Z,84.00
2019-03-16T14:18:42.210Z,100.00
2019-03-16T14:19:42.207Z,100.00
2019-03-16T14:20:42.209Z,108.00
2019-03-16T14:21:42.208Z,140.00
2019-03-16T14:22:42.210Z,136.00
2019-03-16T14:23:42.211Z,112.00
2019-03-16T14:24:42.212Z,112.00
2019-03-16T14:25:42.215Z,120.00
2019-03-16T14:26:42.573Z,120.00
2019-03-16T14:27:42.220Z,100.00
2019-03-16T14:28:42.216Z,100.00
2019-03-16T14:29:42.225Z,124.00
2019-03-16T14:30:45.040Z,116.00
2019-03-16T14:31:42.222Z,92.00
2019-03-16T14:32:42.230Z,80.00
2019-03-16T14:33:42.220Z,72.00
2019-03-16T14:34:42.220Z,64.00
2019-03-16T14:35:42.222Z,68.00
2019-03-16T14:36:42.222Z,68.00
2019-03-16T14:37:42.223Z,68.00
2019-03-16T14:38:42.224Z,76.00
2019-03-16T14:39:42.224Z,76.00
2019-03-16T14:40:42.225Z,72.00
2019-03-16T14:41:42.225Z,68.00
2019-03-16T14:42:42.229Z,72.00
2019-03-16T14:43:42.226Z,72.00
2019-03-16T14:44:42.233Z,72.00
2019-03-16T14:45:42.233Z,72.00
2019-03-16T14:46:42.230Z,80.00
2019-03-16T14:47:42.231Z,84.00
2019-03-16T14:48:42.230Z,92.00
2019-03-16T14:49:42.234Z,92.00
2019-03-16T14:50:42.237Z,88.00
2019-03-16T14:51:42.232Z,84.00
2019-03-16T14:52:42.233Z,84.00
2019-03-16T14:53:42.235Z,84.00
2019-03-16T14:54:42.235Z,80.00
2019-03-16T14:55:42.235Z,80.00
2019-03-16T14:56:42.238Z,80.00
2019-03-16T14:57:42.239Z,84.00
2019-03-16T14:58:42.245Z,88.00
2019-03-16T14:59:42.239Z,88.00
2019-03-16T15:00:42.244Z,92.00
2019-03-16T15:01:42.244Z,88.00
2019-03-16T15:02:42.250Z,84.00
2019-03-16T15:03:42.250Z,88.00
2019-03-16T15:04:42.245Z,80.00
2019-03-16T15:05:42.248Z,76.00
2019-03-16T15:06:42.246Z,76.00
2019-03-16T15:07:42.249Z,72.00
2019-03-16T15:08:42.251Z,72.00
2019-03-16T15:09:42.248Z,72.00
2019-03-16T15:10:42.248Z,72.00
2019-03-16T15:11:42.251Z,76.00
2019-03-16T15:12:42.252Z,76.00
2019-03-16T15:13:42.254Z,80.00
2019-03-16T15:14:42.258Z,84.00
2019-03-16T15:15:42.254Z,88.00
2019-03-16T15:16:42.259Z,80.00
2019-03-16T15:17:42.262Z,84.00
2019-03-16T15:18:44.836Z,80.00
2019-03-16T15:19:42.259Z,76.00
2019-03-16T15:20:42.259Z,80.00
2019-03-16T15:21:42.262Z,76.00
2019-03-16T15:22:42.263Z,76.00
2019-03-16T15:23:42.263Z,76.00
2019-03-16T15:24:42.261Z,76.00
2019-03-16T15:25:42.264Z,80.00
2019-03-16T15:26:42.262Z,80.00
2019-03-16T15:27:42.265Z,80.00
2019-03-16T15:28:42.265Z,80.00
2019-03-16T15:29:42.267Z,84.00
2019-03-16T15:30:50.605Z,84.00
2019-03-16T15:31:42.266Z,84.00
2019-03-16T15:32:42.272Z,84.00
2019-03-16T15:33:42.277Z,92.00
2019-03-16T15:34:42.277Z,88.00
2019-03-16T15:35:42.274Z,88.00
2019-03-16T15:36:42.274Z,88.00
2019-03-16T15:37:42.273Z,84.00
2019-03-16T15:38:42.276Z,84.00
2019-03-16T15:39:42.274Z,84.00
2019-03-16T15:40:42.276Z,84.00
2019-03-16T15:41:42.276Z,76.00
2019-03-16T15:42:42.277Z,76.00
2019-03-16T15:43:42.278Z,76.00
2019-03-16T15:44:42.280Z,76.00
2019-03-16T15:45:42.282Z,80.00
2019-03-16T15:46:42.291Z,80.00
2019-03-16T15:47:42.281Z,84.00
2019-03-16T15:48:42.285Z,88.00
2019-03-16T15:49:42.286Z,88.00
2019-03-16T15:50:42.286Z,92.00
2019-03-16T15:51:42.288Z,96.00
2019-03-16T15:52:42.293Z,92.00
2019-03-16T15:53:42.290Z,92.00
2019-03-16T15:54:42.287Z,92.00
2019-03-16T15:55:42.287Z,88.00
2019-03-16T15:56:42.292Z,84.00
2019-03-16T15:57:42.950Z,84.00
2019-03-16T15:58:42.289Z,80.00
2019-03-16T15:59:42.291Z,80.00
2019-03-16T16:00:42.292Z,76.00
2019-03-16T16:01:42.295Z,72.00
2019-03-16T16:02:42.293Z,68.00
2019-03-16T16:03:42.297Z,68.00
2019-03-16T16:04:42.295Z,64.00
2019-03-16T16:05:42.301Z,60.00
2019-03-16T16:06:42.303Z,64.00
2019-03-16T16:07:42.303Z,64.00
2019-03-16T16:08:42.301Z,68.00
2019-03-16T16:09:42.304Z,72.00
2019-03-16T16:10:42.330Z,76.00
2019-03-16T16:11:42.303Z,80.00
2019-03-16T16:12:42.302Z,84.00
2019-03-16T16:13:42.307Z,88.00
2019-03-16T16:14:42.303Z,84.00
2019-03-16T16:15:42.301Z,80.00
2019-03-16T16:16:42.302Z,76.00
2019-03-16T16:17:42.311Z,76.00
2019-03-16T16:18:42.303Z,76.00
2019-03-16T16:19:42.309Z,68.00
2019-03-16T16:20:42.309Z,68.00
2019-03-16T16:21:42.318Z,68.00
2019-03-16T16:22:42.306Z,68.00
2019-03-16T16:23:42.307Z,76.00
2019-03-16T16:24:42.311Z,80.00
2019-03-16T16:25:42.308Z,84.00
2019-03-16T16:26:42.307Z,80.00
2019-03-16T16:27:42.313Z,80.00
2019-03-16T16:28:42.310Z,92.00
2019-03-16T16:29:42.310Z,92.00
2019-03-16T16:30:42.313Z,88.00
2019-03-16T16:31:42.310Z,84.00
2019-03-16T16:32:42.315Z,84.00
2019-03-16T16:33:42.312Z,88.00
2019-03-16T16:34:42.316Z,84.00
2019-03-16T16:35:42.315Z,80.00
2019-03-16T16:36:42.322Z,80.00
2019-03-16T16:37:42.316Z,80.00
2019-03-16T16:38:42.316Z,76.00
2019-03-16T16:39:42.317Z,76.00
2019-03-16T16:40:42.318Z,76.00
2019-03-16T16:41:42.317Z,76.00
2019-03-16T16:42:42.316Z,72.00
2019-03-16T16:43:42.326Z,72.00
2019-03-16T16:44:42.318Z,72.00
2019-03-16T16:45:42.318Z,68.00
2019-03-16T16:46:42.318Z,68.00
2019-03-16T16:47:42.323Z,64.00
2019-03-16T16:48:42.321Z,60.00
2019-03-16T16:49:42.329Z,56.00
2019-03-16T16:50:42.323Z,56.00
2019-03-16T16:51:42.329Z,52.00
2019-03-16T16:52:42.322Z,52.00
2019-03-16T16:53:42.326Z,52.00
2019-03-16T16:54:42.324Z,48.00
2019-03-16T16:55:42.322Z,44.00
2019-03-16T16:56:42.331Z,44.00
2019-03-16T16:57:42.323Z,40.00
2019-03-16T16:58:42.324Z,36.00
2019-03-16T16:59:42.323Z,36.00
2019-03-16T17:00:42.323Z,36.00
2019-03-16T17:01:42.326Z,36.00
2019-03-16T17:02:42.330Z,32.00
2019-03-16T17:03:42.324Z,32.00
2019-03-16T17:04:42.327Z,28.00
2019-03-16T17:05:43.432Z,28.00
2019-03-16T17:06:42.337Z,28.00
2019-03-16T17:07:42.330Z,28.00
2019-03-16T17:08:42.325Z,24.00
2019-03-16T17:09:42.327Z,24.00
2019-03-16T17:10:42.328Z,20.00
2019-03-16T17:11:42.326Z,24.00
2019-03-16T17:12:42.326Z,20.00
2019-03-16T17:13:42.328Z,20.00
2019-03-16T17:14:42.327Z,16.00
2019-03-16T17:15:42.326Z,16.00
2019-03-16T17:16:42.336Z,16.00
2019-03-16T17:17:42.326Z,16.00
2019-03-16T17:18:42.332Z,12.00
2019-03-16T17:19:42.328Z,16.00
2019-03-16T17:20:42.326Z,12.00
2019-03-16T17:21:42.328Z,8.00
2019-03-16T17:22:42.327Z,12.00
2019-03-16T17:23:42.332Z,8.00
2019-03-16T17:24:42.331Z,8.00
2019-03-16T17:25:42.328Z,8.00
2019-03-16T17:26:42.328Z,8.00
2019-03-16T17:27:42.331Z,4.00
2019-03-16T17:28:42.330Z,4.00
2019-03-16T17:29:42.335Z,8.00
2019-03-16T17:30:42.332Z,4.00
2019-03-16T17:31:42.727Z,4.00
2019-03-16T17:32:42.336Z,4.00
2019-03-16T17:33:42.330Z,0.00
2019-03-16T17:34:42.336Z,4.00
2019-03-16T17:35:42.331Z,4.00
2019-03-16T17:36:42.339Z,0.00
2019-03-16T17:37:42.331Z,0.00
2019-03-16T17:38:42.337Z,0.00
2019-03-16T17:39:44.697Z,4.00
2019-03-16T17:40:42.334Z,4.00
2019-03-16T17:41:42.334Z,0.00
2019-03-16T17:42:42.333Z,0.00
2019-03-16T17:43:42.334Z,0.00
2019-03-16T17:44:42.334Z,0.00
2019-03-16T17:45:42.335Z,0.00
2019-03-16T17:46:42.333Z,0.00
2019-03-16T17:47:42.341Z,0.00
2019-03-16T17:48:42.336Z,0.00
2019-03-16T17:49:42.343Z,0.00
2019-03-16T17:50:42.336Z,0.00
2019-03-16T17:51:42.336Z,0.00
2019-03-16T17:52:42.336Z,0.00
2019-03-16T17:53:42.335Z,0.00
2019-03-16T17:54:42.336Z,0.00
2019-03-16T17:55:42.336Z,0.00
2019-03-16T17:56:42.338Z,0.00
2019-03-16T17:57:45.036Z,0.00
2019-03-16T17:58:42.335Z,0.00
2019-03-16T17:59:42.340Z,0.00
2019-03-16T18:00:42.335Z,0.00
2019-03-16T18:01:54.029Z,0.00
2019-03-16T18:02:51.173Z,0.00
2019-03-16T18:03:42.343Z,0.00
2019-03-16T18:04:42.338Z,0.00
2019-03-16T18:05:42.341Z,0.00
2019-03-16T18:06:42.338Z,0.00
2019-03-16T18:07:42.335Z,0.00
2019-03-16T18:08:42.337Z,0.00
2019-03-16T18:09:42.335Z,0.00
2019-03-16T18:10:42.334Z,0.00
2019-03-16T18:11:42.337Z,0.00
2019-03-16T18:12:42.336Z,0.00
2019-03-16T18:13:42.340Z,0.00
2019-03-16T18:14:42.333Z,0.00
2019-03-16T18:15:42.334Z,0.00
2019-03-16T18:16:42.337Z,0.00
2019-03-16T18:17:42.348Z,0.00
2019-03-16T18:18:42.334Z,0.00
2019-03-16T18:19:42.333Z,0.00
2019-03-16T18:20:42.347Z,0.00
2019-03-16T18:21:42.332Z,0.00
2019-03-16T18:22:42.331Z,0.00
2019-03-16T18:23:42.332Z,0.00
2019-03-16T18:24:42.330Z,0.00
2019-03-16T18:25:42.331Z,0.00
2019-03-16T18:26:42.331Z,0.00
2019-03-16T18:27:42.335Z,0.00
2019-03-16T18:28:42.331Z,0.00
2019-03-16T18:29:42.409Z,0.00
2019-03-16T18:30:42.331Z,0.00
2019-03-16T18:31:42.328Z,0.00
2019-03-16T18:32:42.331Z,0.00
2019-03-16T18:33:42.330Z,0.00
2019-03-16T18:34:42.325Z,0.00
2019-03-16T18:35:42.325Z,0.00
2019-03-16T18:36:42.327Z,0.00
2019-03-16T18:37:42.324Z,0.00
2019-03-16T18:38:42.327Z,0.00
2019-03-16T18:39:42.326Z,0.00
2019-03-16T18:40:42.326Z,0.00
2019-03-16T18:41:42.324Z,0.00
2019-03-16T18:42:42.322Z,0.00
2019-03-16T18:43:42.326Z,0.00
2019-03-16T18:44:42.319Z,0.00
2019-03-16T18:45:42.328Z,0.00
2019-03-16T18:46:42.320Z,0.00
2019-03-16T18:47:42.323Z,0.00
2019-03-16T18:48:42.323Z,0.00
2019-03-16T18:49:42.321Z,0.00
2019-03-16T18:50:42.317Z,0.00
2019-03-16T18:51:42.318Z,0.00
2019-03-16T18:52:42.318Z,0.00
2019-03-16T18:53:45.235Z,0.00
2019-03-16T18:54:42.321Z,0.00
2019-03-16T18:55:42.409Z,0.00
2019-03-16T18:56:42.320Z,0.00
2019-03-16T18:57:42.317Z,0.00
2019-03-16T18:58:42.317Z,0.00
2019-03-16T18:59:42.318Z,0.00
2019-03-16T19:00:42.320Z,0.00
2019-03-16T19:01:42.317Z,0.00
2019-03-16T19:02:42.315Z,0.00
2019-03-16T19:03:42.314Z,0.00
2019-03-16T19:04:42.314Z,0.00
2019-03-16T19:05:42.318Z,0.00
2019-03-16T19:06:42.323Z,0.00
2019-03-16T19:07:42.312Z,0.00
2019-03-16T19:08:42.311Z,0.00
2019-03-16T19:09:42.311Z,0.00
2019-03-16T19:10:42.309Z,0.00
2019-03-16T19:11:42.313Z,0.00
2019-03-16T19:12:42.309Z,0.00
2019-03-16T19:13:42.310Z,0.00
2019-03-16T19:14:42.307Z,0.00
2019-03-16T19:15:42.307Z,0.00
2019-03-16T19:16:42.308Z,0.00
2019-03-16T19:17:42.309Z,0.00
2019-03-16T19:18:42.306Z,0.00
2019-03-16T19:19:42.309Z,0.00
2019-03-16T19:20:42.314Z,0.00
2019-03-16T19:21:42.303Z,0.00
2019-03-16T19:22:42.316Z,0.00
2019-03-16T19:23:42.300Z,0.00
2019-03-16T19:24:42.305Z,0.00
2019-03-16T19:25:42.300Z,0.00
2019-03-16T19:26:42.298Z,0.00
2019-03-16T19:27:42.298Z,0.00
2019-03-16T19:28:42.298Z,0.00
2019-03-16T19:29:42.295Z,0.00
2019-03-16T19:30:42.295Z,0.00
2019-03-16T19:31:42.296Z,0.00
2019-03-16T19:32:42.300Z,0.00
2019-03-16T19:33:42.298Z,0.00
2019-03-16T19:34:42.294Z,0.00
2019-03-16T19:35:42.293Z,0.00
2019-03-16T19:36:42.289Z,0.00
2019-03-16T19:37:42.288Z,0.00
2019-03-16T19:38:42.290Z,0.00
2019-03-16T19:39:42.286Z,0.00
2019-03-16T19:40:42.287Z,0.00
2019-03-16T19:41:42.287Z,0.00
2019-03-16T19:42:42.286Z,0.00
2019-03-16T19:43:42.286Z,0.00
2019-03-16T19:44:42.287Z,0.00
2019-03-16T19:45:42.282Z,0.00
2019-03-16T19:46:42.280Z,0.00
2019-03-16T19:47:42.284Z,0.00
2019-03-16T19:48:42.285Z,0.00
2019-03-16T19:49:42.280Z,0.00
2019-03-16T19:50:42.275Z,0.00
2019-03-16T19:51:42.275Z,0.00
2019-03-16T19:52:42.277Z,0.00
2019-03-16T19:53:42.274Z,0.00
2019-03-16T19:54:42.272Z,0.00
2019-03-16T19:55:42.270Z,0.00
2019-03-16T19:56:42.274Z,0.00
2019-03-16T19:57:42.272Z,0.00
2019-03-16T19:58:42.267Z,0.00
2019-03-16T19:59:42.269Z,0.00
2019-03-16T20:00:42.269Z,0.00
2019-03-16T20:01:42.263Z,0.00
2019-03-16T20:02:50.047Z,0.00
2019-03-16T20:03:42.260Z,0.00
2019-03-16T20:04:42.259Z,0.00
2019-03-16T20:05:42.258Z,0.00
2019-03-16T20:06:42.256Z,0.00
2019-03-16T20:07:42.260Z,0.00
2019-03-16T20:08:42.254Z,0.00
2019-03-16T20:09:42.256Z,0.00
2019-03-16T20:10:42.346Z,0.00
2019-03-16T20:11:42.258Z,0.00
2019-03-16T20:12:42.250Z,0.00
2019-03-16T20:13:42.250Z,0.00
2019-03-16T20:14:42.334Z,0.00
2019-03-16T20:15:43.896Z,0.00
2019-03-16T20:16:42.249Z,0.00
2019-03-16T20:17:42.242Z,0.00
2019-03-16T20:18:42.241Z,0.00
2019-03-16T20:19:42.241Z,0.00
2019-03-16T20:20:42.255Z,0.00
2019-03-16T20:21:42.244Z,0.00
2019-03-16T20:22:42.235Z,0.00
2019-03-16T20:23:42.241Z,0.00
2019-03-16T20:24:42.236Z,0.00
2019-03-16T20:25:42.234Z,0.00
2019-03-16T20:26:42.230Z,0.00
2019-03-16T20:27:42.230Z,0.00
2019-03-16T20:28:42.230Z,0.00
2019-03-16T20:29:42.227Z,0.00
2019-03-16T20:30:42.223Z,0.00
2019-03-16T20:31:46.710Z,0.00
2019-03-16T20:32:42.223Z,0.00
2019-03-16T20:33:42.225Z,0.00
2019-03-16T20:34:42.218Z,0.00
2019-03-16T20:35:42.218Z,0.00
2019-03-16T20:36:42.214Z,0.00
2019-03-16T20:37:42.216Z,0.00
2019-03-16T20:38:42.214Z,0.00
2019-03-16T20:39:42.209Z,0.00
2019-03-16T20:40:42.208Z,0.00
2019-03-16T20:41:42.239Z,0.00
2019-03-16T20:42:42.205Z,0.00
2019-03-16T20:43:42.290Z,0.00
2019-03-16T20:44:42.202Z,0.00
2019-03-16T20:45:42.201Z,0.00
2019-03-16T20:46:42.199Z,0.00
2019-03-16T20:47:42.195Z,0.00
2019-03-16T20:48:42.197Z,0.00
2019-03-16T20:49:42.195Z,0.00
2019-03-16T20:50:42.191Z,0.00
2019-03-16T20:51:42.189Z,0.00
2019-03-16T20:52:42.188Z,0.00
2019-03-16T20:53:42.186Z,0.00
2019-03-16T20:54:42.187Z,0.00
2019-03-16T20:55:42.181Z,0.00
2019-03-16T20:56:42.181Z,0.00
2019-03-16T20:57:42.179Z,0.00
2019-03-16T20:58:42.177Z,0.00
2019-03-16T20:59:42.177Z,0.00
2019-03-16T21:00:42.174Z,0.00
2019-03-16T21:01:42.202Z,0.00
2019-03-16T21:02:42.169Z,0.00
2019-03-16T21:03:42.179Z,0.00
2019-03-16T21:04:42.167Z,0.00
2019-03-16T21:05:42.170Z,0.00
2019-03-16T21:06:42.164Z,0.00
2019-03-16T21:07:42.167Z,0.00
2019-03-16T21:08:42.159Z,0.00
2019-03-16T21:09:42.165Z,0.00
2019-03-16T21:10:42.159Z,0.00
2019-03-16T21:11:42.155Z,0.00
2019-03-16T21:12:42.160Z,0.00
2019-03-16T21:13:42.153Z,0.00
2019-03-16T21:14:42.148Z,0.00
2019-03-16T21:15:42.152Z,0.00
2019-03-16T21:16:42.143Z,0.00
2019-03-16T21:17:42.142Z,0.00
2019-03-16T21:18:42.143Z,0.00
2019-03-16T21:19:42.137Z,0.00
2019-03-16T21:20:42.138Z,0.00
2019-03-16T21:21:42.163Z,0.00
2019-03-16T21:22:42.135Z,0.00
2019-03-16T21:23:42.134Z,0.00
2019-03-16T21:24:42.129Z,0.00
2019-03-16T21:25:42.127Z,0.00
2019-03-16T21:26:51.924Z,0.00
2019-03-16T21:27:42.124Z,0.00
2019-03-16T21:28:42.124Z,0.00
2019-03-16T21:29:42.122Z,0.00
2019-03-16T21:30:42.124Z,0.00
2019-03-16T21:31:42.116Z,0.00
2019-03-16T21:32:42.113Z,0.00
2019-03-16T21:33:42.113Z,0.00
2019-03-16T21:34:42.112Z,0.00
2019-03-16T21:35:42.110Z,0.00
2019-03-16T21:36:42.107Z,0.00
2019-03-16T21:37:42.102Z,0.00
2019-03-16T21:38:42.101Z,0.00
2019-03-16T21:39:42.098Z,0.00
2019-03-16T21:40:42.099Z,0.00
2019-03-16T21:41:44.328Z,0.00
2019-03-16T21:42:42.094Z,0.00
2019-03-16T21:43:42.090Z,0.00
2019-03-16T21:44:42.091Z,0.00
2019-03-16T21:45:42.088Z,0.00
2019-03-16T21:46:43.910Z,0.00
2019-03-16T21:47:42.084Z,0.00
2019-03-16T21:48:42.081Z,0.00
2019-03-16T21:49:42.080Z,0.00
2019-03-16T21:50:42.085Z,0.00
2019-03-16T21:51:42.078Z,0.00
2019-03-16T21:52:44.386Z,0.00
2019-03-16T21:53:42.073Z,0.00
2019-03-16T21:54:42.073Z,0.00
2019-03-16T21:55:42.072Z,0.00
2019-03-16T21:56:42.065Z,0.00
2019-03-16T21:57:42.066Z,0.00
2019-03-16T21:58:42.065Z,0.00
2019-03-16T21:59:42.061Z,0.00
2019-03-16T22:00:42.059Z,0.00
2019-03-16T22:01:42.065Z,0.00
2019-03-16T22:02:42.058Z,0.00
2019-03-16T22:03:42.455Z,0.00
2019-03-16T22:04:42.057Z,0.00
2019-03-16T22:05:42.057Z,0.00
2019-03-16T22:06:42.053Z,0.00
2019-03-16T22:07:42.056Z,0.00
2019-03-16T22:08:42.050Z,0.00
2019-03-16T22:09:42.047Z,0.00
2019-03-16T22:10:42.048Z,0.00
2019-03-16T22:11:42.046Z,0.00
2019-03-16T22:12:42.045Z,0.00
2019-03-16T22:13:42.047Z,0.00
2019-03-16T22:14:42.042Z,0.00
2019-03-16T22:15:42.042Z,0.00
2019-03-16T22:16:42.044Z,0.00
2019-03-16T22:17:42.648Z,0.00
2019-03-16T22:18:42.039Z,0.00
2019-03-16T22:19:42.041Z,0.00
2019-03-16T22:20:42.038Z,0.00
2019-03-16T22:21:42.043Z,0.00
2019-03-16T22:22:42.036Z,0.00
2019-03-16T22:23:42.035Z,0.00
2019-03-16T22:24:42.035Z,0.00
2019-03-16T22:25:42.037Z,0.00
2019-03-16T22:26:42.033Z,0.00
2019-03-16T22:27:42.035Z,0.00
2019-03-16T22:28:42.066Z,0.00
2019-03-16T22:29:42.037Z,0.00
2019-03-16T22:30:42.033Z,0.00
2019-03-16T22:31:42.029Z,0.00
2019-03-16T22:32:42.032Z,0.00
2019-03-16T22:33:53.518Z,0.00
2019-03-16T22:34:42.028Z,0.00
2019-03-16T22:35:42.027Z,0.00
2019-03-16T22:36:42.027Z,0.00
2019-03-16T22:37:42.028Z,0.00
2019-03-16T22:38:42.025Z,0.00
2019-03-16T22:39:42.028Z,0.00
2019-03-16T22:40:42.026Z,0.00
2019-03-16T22:41:42.025Z,0.00
2019-03-16T22:42:42.031Z,0.00
2019-03-16T22:43:42.025Z,0.00
2019-03-16T22:44:42.023Z,0.00
2019-03-16T22:45:42.024Z,0.00
2019-03-16T22:46:42.021Z,0.00
2019-03-16T22:47:42.020Z,0.00
2019-03-16T22:48:42.022Z,0.00
2019-03-16T22:49:42.022Z,0.00
2019-03-16T22:50:42.019Z,0.00
2019-03-16T22:51:42.020Z,0.00
2019-03-16T22:52:42.018Z,0.00
2019-03-16T22:53:42.022Z,0.00
2019-03-16T22:54:42.017Z,0.00
2019-03-16T22:55:42.022Z,0.00
2019-03-16T22:56:42.017Z,0.00
2019-03-16T22:57:42.019Z,0.00
2019-03-16T22:58:42.020Z,0.00
2019-03-16T22:59:42.015Z,0.00
2019-03-16T23:00:42.017Z,0.00
2019-03-16T23:01:42.015Z,0.00
2019-03-16T23:02:42.014Z,0.00
2019-03-16T23:03:42.014Z,0.00
2019-03-16T23:04:42.021Z,0.00
2019-03-16T23:05:42.016Z,0.00
2019-03-16T23:06:42.015Z,0.00
2019-03-16T23:07:42.012Z,0.00
2019-03-16T23:08:42.015Z,0.00
2019-03-16T23:09:42.010Z,0.00
2019-03-16T23:10:42.009Z,0.00
2019-03-16T23:11:42.010Z,0.00
2019-03-16T23:12:42.010Z,0.00
2019-03-16T23:13:42.013Z,0.00
2019-03-16T23:14:42.016Z,0.00
2019-03-16T23:15:42.007Z,0.00
2019-03-16T23:16:42.014Z,0.00
2019-03-16T23:17:42.009Z,0.00
2019-03-16T23:18:42.017Z,0.00
2019-03-16T23:19:42.093Z,0.00
2019-03-16T23:20:42.006Z,0.00
2019-03-16T23:21:42.007Z,0.00
2019-03-16T23:22:42.010Z,0.00
2019-03-16T23:23:42.696Z,0.00
2019-03-16T23:24:42.006Z,0.00
2019-03-16T23:25:42.006Z,0.00
2019-03-16T23:26:42.006Z,0.00
2019-03-16T23:27:42.002Z,0.00
2019-03-16T23:28:42.004Z,0.00
2019-03-16T23:29:42.002Z,0.00
2019-03-16T23:30:42.008Z,0.00
2019-03-16T23:31:42.009Z,0.00
2019-03-16T23:32:42.002Z,0.00
2019-03-16T23:33:42.000Z,0.00
2019-03-16T23:34:42.001Z,0.00
2019-03-16T23:35:41.998Z,0.00
2019-03-16T23:36:42.001Z,0.00
2019-03-16T23:37:42.000Z,0.00
2019-03-16T23:38:42.005Z,0.00
2019-03-16T23:39:41.998Z,0.00
2019-03-16T23:40:41.996Z,0.00
2019-03-16T23:41:41.994Z,0.00
2019-03-16T23:42:41.994Z,0.00
2019-03-16T23:43:41.994Z,0.00
2019-03-16T23:44:41.998Z,0.00
2019-03-16T23:45:41.992Z,0.00
2019-03-16T23:46:42.005Z,0.00
2019-03-16T23:47:41.993Z,0.00
2019-03-16T23:48:41.991Z,0.00
2019-03-16T23:49:41.995Z,0.00
2019-03-16T23:50:41.990Z,0.00
2019-03-16T23:51:41.991Z,0.00
2019-03-16T23:52:41.989Z,0.00
2019-03-16T23:53:41.993Z,0.00
2019-03-16T23:54:41.989Z,0.00
2019-03-16T23:55:41.993Z,0.00
2019-03-16T23:56:41.990Z,0.00
2019-03-16T23:57:41.991Z,0.00
2019-03-16T23:58:41.987Z,0.00
2019-03-16T23:59:41.992Z,0.00
